createdAt,value
2019-03-03T00:03:49.580Z,40.63
2019-03-03T00:08:56.554Z,40.03
2019-03-03T00:14:03.615Z,36.63
2019-03-03T00:19:10.701Z,41.20
2019-03-03T00:24:17.707Z,41.17
2019-03-03T00:29:24.871Z,41.53
2019-03-03T00:34:33.106Z,38.73
2019-03-03T00:39:58.158Z,36.40
2019-03-03T00:45:24.305Z,37.47
2019-03-03T00:50:37.793Z,36.57
2019-03-03T00:56:07.306Z,30.70
2019-03-03T01:01:38.081Z,33.07
2019-03-03T01:07:10.425Z,29.47
2019-03-03T01:12:35.398Z,29.37
2019-03-03T01:17:51.166Z,26.37
2019-03-03T01:23:19.939Z,24.53
2019-03-03T01:28:26.856Z,23.53
2019-03-03T01:33:33.776Z,21.90
2019-03-03T01:38:40.714Z,18.47
2019-03-03T01:43:47.638Z,18.57
2019-03-03T01:48:54.658Z,18.70
2019-03-03T01:54:01.590Z,17.50
2019-03-03T01:59:08.654Z,16.90
2019-03-03T02:04:15.640Z,19.13
2019-03-03T02:09:22.896Z,15.43
2019-03-03T02:14:29.956Z,15.33
2019-03-03T02:19:37.344Z,15.17
2019-03-03T02:24:44.367Z,14.40
2019-03-03T02:29:51.281Z,14.03
2019-03-03T02:34:59.165Z,12.87
2019-03-03T02:40:06.918Z,11.67
2019-03-03T02:45:17.108Z,10.93
2019-03-03T02:50:25.561Z,11.27
2019-03-03T02:55:32.593Z,10.50
2019-03-03T03:00:47.048Z,9.43
2019-03-03T03:06:04.001Z,10.80
2019-03-03T03:11:30.828Z,9.10
2019-03-03T03:17:12.207Z,7.33
2019-03-03T03:22:29.244Z,7.30
2019-03-03T03:27:48.442Z,8.80
2019-03-03T03:33:04.519Z,7.70
2019-03-03T03:38:30.415Z,7.70
2019-03-03T03:43:56.616Z,7.10
2019-03-03T03:49:10.990Z,10.33
2019-03-03T03:54:44.120Z,7.23
2019-03-03T04:00:16.998Z,10.93
2019-03-03T04:05:30.436Z,8.23
2019-03-03T04:10:55.572Z,7.73
2019-03-03T04:16:21.523Z,7.03
2019-03-03T04:21:36.266Z,9.07
2019-03-03T04:26:52.803Z,10.57
2019-03-03T04:32:21.621Z,8.70
2019-03-03T04:37:46.590Z,8.47
2019-03-03T04:43:05.316Z,9.63
2019-03-03T04:48:21.426Z,11.10
2019-03-03T04:53:49.480Z,7.90
2019-03-03T04:59:13.172Z,8.70
2019-03-03T05:04:34.456Z,7.17
2019-03-03T05:10:08.565Z,8.43
2019-03-03T05:15:32.220Z,8.23
2019-03-03T05:20:47.128Z,8.10
2019-03-03T05:25:55.020Z,7.70
2019-03-03T05:31:02.059Z,9.83
2019-03-03T05:36:08.976Z,10.00
2019-03-03T05:41:15.940Z,9.07
2019-03-03T05:46:22.924Z,10.30
2019-03-03T05:51:29.869Z,7.47
2019-03-03T05:56:37.069Z,10.50
2019-03-03T06:01:43.991Z,10.40
2019-03-03T06:06:50.963Z,9.63
2019-03-03T06:11:57.910Z,12.67
2019-03-03T06:17:04.863Z,9.60
2019-03-03T06:22:11.769Z,9.40
2019-03-03T06:27:18.694Z,9.33
2019-03-03T06:32:25.592Z,12.13
2019-03-03T06:37:32.519Z,8.57
2019-03-03T06:42:39.586Z,10.00
2019-03-03T06:47:46.554Z,9.57
2019-03-03T06:52:53.582Z,9.77
2019-03-03T06:58:00.599Z,10.00
2019-03-03T07:03:07.490Z,8.10
2019-03-03T07:08:14.430Z,9.30
2019-03-03T07:13:21.346Z,7.67
2019-03-03T07:18:28.248Z,8.10
2019-03-03T07:23:35.226Z,13.03
2019-03-03T07:28:42.163Z,8.27
2019-03-03T07:33:53.101Z,11.80
2019-03-03T07:39:00.012Z,8.97
2019-03-03T07:44:06.925Z,6.90
2019-03-03T07:49:13.852Z,7.50
2019-03-03T07:54:20.796Z,11.27
2019-03-03T07:59:27.730Z,9.63
2019-03-03T08:04:34.746Z,8.60
2019-03-03T08:09:41.653Z,8.40
2019-03-03T08:14:48.565Z,9.33
2019-03-03T08:19:55.489Z,9.50
2019-03-03T08:25:02.526Z,9.13
2019-03-03T08:30:10.064Z,9.03
2019-03-03T08:35:17.043Z,8.93
2019-03-03T08:40:24.060Z,8.33
2019-03-03T08:45:50.424Z,10.10
2019-03-03T08:51:02.094Z,9.67
2019-03-03T08:56:22.109Z,11.47
2019-03-03T09:01:40.125Z,9.57
2019-03-03T09:06:57.804Z,9.10
2019-03-03T09:12:22.692Z,8.67
2019-03-03T09:17:44.543Z,9.63
2019-03-03T09:22:58.214Z,7.47
2019-03-03T09:28:23.122Z,8.83
2019-03-03T09:33:46.205Z,9.27
2019-03-03T09:39:11.317Z,7.40
2019-03-03T09:44:38.982Z,8.17
2019-03-03T09:50:03.845Z,7.23
2019-03-03T09:55:17.373Z,9.47
2019-03-03T10:00:33.862Z,8.00
2019-03-03T10:05:53.341Z,7.30
2019-03-03T10:11:22.375Z,8.20
2019-03-03T10:16:37.003Z,9.63
2019-03-03T10:22:01.756Z,8.50
2019-03-03T10:27:19.496Z,10.03
2019-03-03T10:32:44.332Z,7.23
2019-03-03T10:38:00.790Z,10.83
2019-03-03T10:43:35.720Z,12.83
2019-03-03T10:48:56.904Z,8.30
2019-03-03T10:54:22.879Z,10.17
2019-03-03T10:59:39.996Z,12.70
2019-03-03T11:05:00.794Z,8.50
2019-03-03T11:10:19.161Z,11.43
2019-03-03T11:15:38.989Z,11.10
2019-03-03T11:21:05.261Z,10.83
2019-03-03T11:26:19.267Z,10.73
2019-03-03T11:31:33.278Z,11.80
2019-03-03T11:36:45.840Z,8.20
2019-03-03T11:42:18.114Z,11.53
2019-03-03T11:47:41.954Z,14.30
2019-03-03T11:53:02.571Z,10.03
2019-03-03T11:58:31.049Z,12.30
2019-03-03T12:03:55.781Z,6.97
2019-03-03T12:09:20.603Z,7.23
2019-03-03T12:14:35.651Z,9.57
2019-03-03T12:20:01.705Z,12.00
2019-03-03T12:25:28.373Z,10.47
2019-03-03T12:30:48.743Z,9.57
2019-03-03T12:36:20.521Z,9.90
2019-03-03T12:41:45.214Z,12.03
2019-03-03T12:47:11.149Z,9.33
2019-03-03T12:52:45.200Z,10.17
2019-03-03T12:58:09.997Z,10.37
2019-03-03T13:03:25.304Z,11.97
2019-03-03T13:08:45.410Z,9.43
2019-03-03T13:19:36.275Z,8.87
2019-03-03T13:25:05.181Z,9.23
2019-03-03T13:30:32.073Z,9.77
2019-03-03T13:36:09.243Z,9.10
2019-03-03T13:41:29.357Z,9.17
2019-03-03T13:46:36.283Z,15.57
2019-03-03T13:51:43.785Z,10.57
2019-03-03T13:56:50.967Z,10.83
2019-03-03T14:01:58.101Z,12.57
2019-03-03T14:07:05.486Z,12.03
2019-03-03T14:12:12.491Z,8.27
2019-03-03T14:17:20.160Z,8.30
2019-03-03T14:22:27.147Z,11.17
2019-03-03T14:27:34.116Z,7.87
2019-03-03T14:32:41.173Z,11.07
2019-03-03T14:37:48.102Z,7.73
2019-03-03T14:42:55.617Z,9.53
2019-03-03T14:48:02.532Z,10.27
2019-03-03T14:53:09.598Z,9.93
2019-03-03T14:58:17.624Z,8.83
2019-03-03T15:03:24.529Z,11.97
2019-03-03T15:08:31.517Z,8.23
2019-03-03T15:13:38.823Z,9.00
2019-03-03T15:18:45.874Z,11.43
2019-03-03T15:23:52.789Z,10.80
2019-03-03T15:29:00.427Z,9.27
2019-03-03T15:34:07.416Z,10.03
2019-03-03T15:39:14.837Z,8.60
2019-03-03T15:44:21.877Z,7.57
2019-03-03T15:49:28.796Z,9.53
2019-03-03T15:54:35.747Z,10.77
2019-03-03T15:59:42.690Z,10.00
2019-03-03T16:04:49.843Z,9.57
2019-03-03T16:09:56.988Z,7.70
2019-03-03T16:15:04.658Z,8.87
2019-03-03T16:20:14.591Z,9.63
2019-03-03T16:25:21.856Z,9.43
2019-03-03T16:30:28.860Z,10.27
2019-03-03T16:35:35.981Z,10.53
2019-03-03T16:40:43.016Z,8.07
2019-03-03T16:45:50.480Z,9.70
2019-03-03T16:50:57.470Z,10.97
2019-03-03T16:56:05.383Z,10.33
2019-03-03T17:01:12.286Z,8.10
2019-03-03T17:06:19.240Z,9.70
2019-03-03T17:11:26.208Z,7.87
2019-03-03T17:16:33.120Z,10.13
2019-03-03T17:21:40.053Z,10.37
2019-03-03T17:26:47.048Z,8.67
2019-03-03T17:31:53.962Z,9.47
2019-03-03T17:37:00.909Z,8.47
2019-03-03T17:42:07.824Z,8.63
2019-03-03T17:47:14.827Z,8.93
2019-03-03T17:52:21.816Z,10.70
2019-03-03T17:57:28.746Z,11.10
2019-03-03T18:02:35.733Z,9.00
2019-03-03T18:07:42.952Z,8.30
2019-03-03T18:12:50.021Z,9.90
2019-03-03T18:17:57.845Z,9.33
2019-03-03T18:23:04.957Z,6.60
2019-03-03T18:28:11.877Z,7.20
2019-03-03T18:33:18.778Z,8.87
2019-03-03T18:38:26.100Z,6.57
2019-03-03T18:43:33.114Z,7.30
2019-03-03T18:48:40.215Z,7.77
2019-03-03T18:53:47.224Z,6.63
2019-03-03T18:58:54.300Z,5.60
2019-03-03T19:04:01.286Z,9.63
2019-03-03T19:09:10.865Z,8.43
2019-03-03T19:14:27.836Z,9.63
2019-03-03T19:19:26.847Z,8.93
2019-03-03T19:24:33.811Z,8.10
2019-03-03T19:29:40.955Z,9.43
2019-03-03T19:34:47.959Z,8.90
2019-03-03T19:39:55.072Z,6.87
2019-03-03T19:45:02.143Z,7.27
2019-03-03T19:50:11.695Z,7.97
2019-03-03T19:55:18.847Z,10.10
2019-03-03T20:00:35.383Z,5.67
2019-03-03T20:05:37.921Z,7.50
2019-03-03T20:10:44.903Z,8.53
2019-03-03T20:15:51.966Z,7.20
2019-03-03T20:20:58.909Z,5.83
2019-03-03T20:26:06.662Z,6.97
2019-03-03T20:31:13.789Z,6.67
2019-03-03T20:36:21.852Z,4.83
2019-03-03T20:41:28.841Z,7.00
2019-03-03T20:46:35.808Z,4.87
2019-03-03T20:51:42.752Z,6.70
2019-03-03T20:56:49.741Z,6.70
2019-03-03T21:01:56.685Z,7.33
2019-03-03T21:07:03.700Z,4.47
2019-03-03T21:12:10.821Z,4.83
2019-03-03T21:17:17.878Z,6.07
2019-03-03T21:22:24.900Z,8.53
2019-03-03T21:27:31.889Z,7.67
2019-03-03T21:32:38.822Z,5.87
2019-03-03T21:37:46.272Z,5.17
2019-03-03T21:42:53.411Z,5.43
2019-03-03T21:48:00.434Z,8.40
2019-03-03T21:53:08.478Z,7.23
2019-03-03T21:58:16.545Z,6.77
2019-03-03T22:03:23.498Z,7.17
2019-03-03T22:08:30.430Z,10.07
2019-03-03T22:13:37.427Z,7.07
2019-03-03T22:18:44.386Z,6.70
2019-03-03T22:23:51.322Z,8.13
2019-03-03T22:28:58.280Z,6.63
2019-03-03T22:34:05.333Z,7.43
2019-03-03T22:39:12.337Z,6.87
2019-03-03T22:44:19.288Z,8.87
2019-03-03T22:49:27.389Z,8.43
2019-03-03T22:54:34.384Z,10.03
2019-03-03T22:59:41.313Z,7.57
2019-03-03T23:05:32.822Z,9.77
2019-03-03T23:11:11.794Z,11.33
2019-03-03T23:16:58.271Z,9.30
2019-03-03T23:22:39.226Z,13.03
2019-03-03T23:27:46.248Z,7.53
2019-03-03T23:32:53.509Z,5.43
2019-03-03T23:38:00.467Z,8.00
2019-03-03T23:43:08.173Z,6.47
2019-03-03T23:48:16.895Z,8.10
2019-03-03T23:53:23.847Z,10.23
2019-03-03T23:58:30.867Z,8.20
